Time;durP1;ratioP1;P1;durP2;ratioP2;P2;SDS_P1;SDS_P2;PMS_P1;PMS_P2;Temp;Humidity;BMP_temperature;BMP_pressure;BME280_temperature;BME280_humidity;BME280_pressure;Samples;Min_cycle;Max_cycle;Signal;HPM_P1;HPM_P2
2021/05/20 00:00:30;;;;;;;10.77;6.93;;;;;;;11.59;85.61;99245.84;4996392;28;20058;-63
2021/05/20 00:03:04;;;;;;;10.63;7.00;;;;;;;11.60;85.40;99250.09;4996457;28;20069;-63
2021/05/20 00:05:33;;;;;;;12.90;7.05;;;;;;;11.58;85.30;99246.72;4997064;28;20075;-63
2021/05/20 00:08:05;;;;;;;9.93;6.45;;;;;;;11.60;85.33;99247.53;4996621;28;20060;-63
2021/05/20 00:10:36;;;;;;;9.60;6.25;;;;;;;11.58;85.04;99250.97;4995913;28;20050;-62
2021/05/20 00:13:08;;;;;;;11.65;7.22;;;;;;;11.57;84.91;99250.13;4996223;28;20058;-62
2021/05/20 00:15:40;;;;;;;11.27;7.10;;;;;;;11.56;84.74;99248.44;4996544;28;20073;-62
2021/05/20 00:18:12;;;;;;;10.43;6.88;;;;;;;11.57;84.79;99247.56;4996503;28;20134;-63
2021/05/20 00:20:41;;;;;;;9.77;6.78;;;;;;;11.59;84.63;99245.84;4995988;28;20050;-62
2021/05/20 00:23:13;;;;;;;9.57;6.15;;;;;;;11.58;84.47;99249.28;4996032;28;20050;-64
2021/05/20 00:25:45;;;;;;;11.00;7.05;;;;;;;11.58;84.50;99254.38;4996036;28;20054;-62
2021/05/20 00:28:14;;;;;;;8.90;6.30;;;;;;;11.57;84.37;99250.13;4996005;28;20136;-64
2021/05/20 00:30:47;;;;;;;7.57;4.90;;;;;;;11.60;84.32;99257.75;4995916;28;20129;-63
2021/05/20 00:33:19;;;;;;;9.40;6.47;;;;;;;11.62;84.17;99256.03;4995835;28;20387;-64
2021/05/20 00:35:48;;;;;;;9.88;6.38;;;;;;;11.61;83.82;99254.34;4996137;28;20054;-65
2021/05/20 00:38:17;;;;;;;9.65;7.10;;;;;;;11.64;83.69;99253.44;4995762;28;20056;-62
2021/05/20 00:40:49;;;;;;;10.27;6.40;;;;;;;11.60;83.41;99252.66;4995646;28;20074;-62
2021/05/20 00:43:21;;;;;;;8.77;5.80;;;;;;;11.61;83.32;99254.34;4995930;28;20054;-63
2021/05/20 00:45:54;;;;;;;10.15;6.03;;;;;;;11.63;83.08;99256.88;4995355;28;20465;-62
2021/05/20 00:48:26;;;;;;;11.10;6.60;;;;;;;11.63;83.13;99260.28;4995601;28;20050;-65
2021/05/20 00:50:56;;;;;;;8.27;5.80;;;;;;;11.65;82.78;99252.59;4995212;28;20064;-65
2021/05/20 00:53:28;;;;;;;8.20;5.83;;;;;;;11.60;82.65;99247.53;4995388;28;20070;-64
2021/05/20 00:55:59;;;;;;;8.50;6.10;;;;;;;11.61;82.57;99254.34;4995690;28;20062;-62
2021/05/20 00:58:32;;;;;;;10.20;5.90;;;;;;;11.61;81.96;99254.34;4995402;28;20058;-64
2021/05/20 01:01:02;;;;;;;9.30;6.50;;;;;;;11.64;81.79;99254.28;4995249;28;20118;-64
2021/05/20 01:03:34;;;;;;;9.15;6.45;;;;;;;11.65;81.38;99260.25;4995183;28;20062;-64
2021/05/20 01:06:03;;;;;;;9.20;6.18;;;;;;;11.67;81.61;99253.41;4995305;28;20108;-65
2021/05/20 01:08:32;;;;;;;9.90;6.47;;;;;;;11.65;81.28;99258.56;4995156;28;20050;-61
2021/05/20 01:11:04;;;;;;;8.35;5.85;;;;;;;11.64;81.42;99261.97;4995118;28;20054;-62
2021/05/20 01:13:36;;;;;;;8.05;5.88;;;;;;;11.60;81.24;99256.91;4995348;28;20046;-63
2021/05/20 01:16:12;;;;;;;8.55;5.97;;;;;;;11.59;81.14;99261.16;4994829;28;20073;-64
2021/05/20 01:18:44;;;;;;;10.40;5.68;;;;;;;11.47;81.39;99243.41;4995050;28;20569;-64
2021/05/20 01:21:15;;;;;;;10.55;6.38;;;;;;;11.54;81.16;99255.25;4995245;28;20074;-62
2021/05/20 01:23:47;;;;;;;8.93;6.03;;;;;;;11.53;80.92;99251.03;4993492;28;20054;-63
2021/05/20 01:26:16;;;;;;;7.78;5.05;;;;;;;11.54;80.86;99245.03;4994918;28;20085;-62
2021/05/20 01:28:48;;;;;;;7.93;4.90;;;;;;;11.52;80.61;99254.44;4995084;28;20480;-62
2021/05/20 01:31:28;;;;;;;;;;;;;;;;;;;;;
2021/05/20 01:34:09;;;;;;;8.75;5.32;;;;;;;11.48;80.82;99251.94;4934981;29;20060;-63
2021/05/20 01:36:41;;;;;;;9.02;5.70;;;;;;;11.46;80.97;99254.53;4935110;29;20063;-65
2021/05/20 01:39:13;;;;;;;9.85;5.80;;;;;;;11.45;80.96;99252.81;4935142;29;20138;-64
2021/05/20 01:41:45;;;;;;;10.30;5.68;;;;;;;11.46;80.85;99257.06;4934841;29;20065;-65
2021/05/20 01:44:13;;;;;;;8.98;5.88;;;;;;;11.47;80.58;99253.63;4934699;29;20412;-63
2021/05/20 01:46:42;;;;;;;8.98;6.10;;;;;;;11.48;80.77;99255.34;4934490;29;20080;-65
2021/05/20 01:49:10;;;;;;;8.57;5.80;;;;;;;11.47;80.57;99258.75;4934769;29;20147;-63
2021/05/20 01:51:41;;;;;;;9.75;6.05;;;;;;;11.48;80.12;99254.50;4950639;28;20055;-65
2021/05/20 01:54:10;;;;;;;7.95;5.10;;;;;;;11.40;80.34;99239.25;4974862;28;20146;-63
2021/05/20 01:56:38;;;;;;;9.07;6.07;;;;;;;11.48;80.18;99262.16;4975108;28;20069;-62
2021/05/20 01:59:08;;;;;;;8.43;5.60;;;;;;;11.48;80.06;99252.78;4975409;28;20046;-63
2021/05/20 02:01:37;;;;;;;11.63;6.50;;;;;;;11.49;79.82;99254.50;4974808;28;20436;-63
2021/05/20 02:04:06;;;;;;;8.95;5.32;;;;;;;11.50;79.75;99261.28;4974676;28;20054;-64
2021/05/20 02:06:35;;;;;;;7.68;5.03;;;;;;;11.50;80.07;99260.44;4974816;28;20134;-62
2021/05/20 02:09:06;;;;;;;8.32;5.55;;;;;;;11.50;80.12;99256.16;4957561;28;20089;-64
2021/05/20 02:11:35;;;;;;;8.85;5.65;;;;;;;11.46;79.77;99254.53;4974788;28;20460;-65
2021/05/20 02:14:04;;;;;;;9.10;5.28;;;;;;;11.42;79.89;99257.97;4974947;28;20098;-64
2021/05/20 02:16:33;;;;;;;10.10;5.05;;;;;;;11.43;79.73;99257.09;4974958;28;20067;-62
2021/05/20 02:19:01;;;;;;;7.72;5.03;;;;;;;11.44;80.01;99266.47;4974655;28;20070;-64
2021/05/20 02:21:30;;;;;;;8.50;5.13;;;;;;;11.41;80.13;99262.25;4974571;28;20046;-64
2021/05/20 02:23:58;;;;;;;8.15;5.00;;;;;;;11.42;79.94;99263.09;4974822;28;20097;-63
2021/05/20 02:26:28;;;;;;;7.78;5.15;;;;;;;11.43;80.08;99269.88;4974927;28;20151;-62
2021/05/20 02:28:56;;;;;;;9.13;5.57;;;;;;;11.39;79.77;99269.09;4974563;28;20420;-64
2021/05/20 02:31:25;;;;;;;10.77;4.97;;;;;;;11.40;80.07;99269.91;4974530;28;20039;-62
2021/05/20 02:33:53;;;;;;;7.40;5.22;;;;;;;11.40;79.81;99269.91;4975916;28;20482;-64
2021/05/20 02:36:21;;;;;;;8.30;5.18;;;;;;;11.33;80.04;99258.06;4978233;28;20070;-62
2021/05/20 02:38:50;;;;;;;8.80;4.90;;;;;;;11.41;80.36;99271.59;4978257;28;20058;-64
2021/05/20 02:41:18;;;;;;;8.60;4.93;;;;;;;11.42;80.11;99263.91;4961066;28;20113;-62
2021/05/20 02:43:48;;;;;;;7.45;4.78;;;;;;;11.39;80.30;99274.19;4978199;28;20042;-62
2021/05/20 02:46:17;;;;;;;7.43;5.00;;;;;;;11.40;80.53;99264.78;4978407;28;20446;-64
2021/05/20 02:48:45;;;;;;;8.25;5.15;;;;;;;11.41;80.46;99271.59;4978115;28;20528;-64
2021/05/20 02:51:14;;;;;;;10.43;5.20;;;;;;;11.42;80.55;99273.31;4990961;28;20177;-62
2021/05/20 02:53:42;;;;;;;12.77;5.32;;;;;;;11.43;80.15;99275.00;4997501;28;20050;-62
2021/05/20 02:56:11;;;;;;;9.00;5.40;;;;;;;11.42;80.17;99271.56;4997637;28;20085;-63
2021/05/20 02:58:39;;;;;;;10.40;5.63;;;;;;;11.43;80.27;99275.00;4997400;28;20538;-62
2021/05/20 03:01:09;;;;;;;11.23;5.50;;;;;;;11.42;80.11;99274.13;4997340;28;20052;-62
2021/05/20 03:03:38;;;;;;;9.40;5.68;;;;;;;11.45;80.33;99273.25;4997829;28;20288;-64
2021/05/20 03:06:07;;;;;;;10.02;5.85;;;;;;;11.43;79.90;99270.72;4997097;28;20117;-62
2021/05/20 03:08:36;;;;;;;11.63;5.85;;;;;;;11.44;80.17;99276.69;4997528;28;20046;-64
2021/05/20 03:11:04;;;;;;;11.00;5.70;;;;;;;11.43;80.01;99269.88;4997188;28;20097;-62
2021/05/20 03:13:33;;;;;;;9.80;5.75;;;;;;;11.44;79.96;99281.81;4997379;28;20146;-62
2021/05/20 03:16:01;;;;;;;8.45;5.78;;;;;;;11.46;79.77;99272.41;4996947;28;20371;-63
2021/05/20 03:18:31;;;;;;;10.70;5.75;;;;;;;11.47;79.38;99261.31;4997297;28;20062;-62
2021/05/20 03:21:00;;;;;;;12.13;6.68;;;;;;;11.44;79.77;99272.41;4997578;28;20054;-64
2021/05/20 03:23:28;;;;;;;8.07;6.07;;;;;;;11.46;79.42;99269.84;4996860;28;20448;-62
2021/05/20 03:25:57;;;;;;;10.02;5.95;;;;;;;11.47;79.43;99274.06;4996867;28;20093;-63
2021/05/20 03:28:25;;;;;;;9.60;6.03;;;;;;;11.48;79.34;99278.34;4996890;28;20045;-62
2021/05/20 03:30:54;;;;;;;10.77;6.25;;;;;;;11.48;79.01;99275.78;4997044;28;20073;-63
2021/05/20 03:33:22;;;;;;;8.43;6.18;;;;;;;11.50;79.14;99270.66;4997041;28;20053;-62
2021/05/20 03:35:52;;;;;;;6.43;4.90;;;;;;;11.49;79.07;99274.94;4996701;28;20046;-63
2021/05/20 03:38:21;;;;;;;8.70;6.18;;;;;;;11.50;78.84;99268.94;4979728;28;20121;-63
2021/05/20 03:40:49;;;;;;;9.15;6.30;;;;;;;11.47;78.66;99276.63;4996601;28;20043;-63
2021/05/20 03:43:18;;;;;;;7.88;5.68;;;;;;;11.46;78.54;99274.97;4996498;28;20054;-62
2021/05/20 03:45:47;;;;;;;9.15;5.75;;;;;;;11.48;79.03;99288.56;4995690;28;20500;-63
2021/05/20 03:48:15;;;;;;;8.60;5.00;;;;;;;11.48;78.83;99283.44;4996355;28;20113;-62
2021/05/20 03:50:44;;;;;;;7.57;5.35;;;;;;;11.51;78.70;99278.31;4996313;28;20046;-61
2021/05/20 03:53:13;;;;;;;9.52;5.55;;;;;;;11.54;78.68;99288.47;4996699;28;20097;-63
2021/05/20 03:55:42;;;;;;;9.65;5.55;;;;;;;11.56;78.51;99286.78;4996368;28;20039;-63
2021/05/20 03:58:10;;;;;;;7.43;4.75;;;;;;;11.58;78.02;99291.88;4996375;28;20077;-63
2021/05/20 04:00:38;;;;;;;9.18;4.85;;;;;;;11.56;78.05;99291.91;4996289;28;20101;-63
2021/05/20 04:03:07;;;;;;;7.70;4.47;;;;;;;11.58;78.19;99294.41;4996221;28;20038;-61
2021/05/20 04:05:36;;;;;;;7.22;4.10;;;;;;;11.60;78.11;99288.44;4996508;28;20488;-63
2021/05/20 04:08:05;;;;;;;6.88;4.57;;;;;;;11.61;77.88;99285.03;4996032;28;20047;-62
2021/05/20 04:10:35;;;;;;;7.00;4.35;;;;;;;11.64;77.99;99290.06;4996094;28;20042;-63
2021/05/20 04:13:03;;;;;;;6.82;4.28;;;;;;;11.68;77.70;99291.78;4996137;28;20042;-62
2021/05/20 04:15:32;;;;;;;8.35;4.03;;;;;;;11.71;77.23;99296.84;4996285;28;20459;-64
2021/05/20 04:18:00;;;;;;;6.55;4.40;;;;;;;11.76;77.40;99294.22;4995815;28;20053;-62
2021/05/20 04:20:29;;;;;;;10.13;4.28;;;;;;;11.78;77.16;99303.56;4996126;28;20361;-62
2021/05/20 04:22:57;;;;;;;6.50;4.00;;;;;;;11.80;77.15;99307.00;4995793;28;20047;-63
2021/05/20 04:25:26;;;;;;;5.72;3.60;;;;;;;11.82;76.79;99305.25;4995796;28;20444;-62
2021/05/20 04:27:55;;;;;;;6.88;3.83;;;;;;;11.85;76.84;99304.38;4995554;28;20065;-62
2021/05/20 04:30:25;;;;;;;9.50;4.35;;;;;;;11.86;76.63;99312.00;4995699;28;20049;-61
2021/05/20 04:32:54;;;;;;;6.53;4.35;;;;;;;11.81;76.41;99298.44;4995708;28;20038;-61
2021/05/20 04:35:23;;;;;;;7.45;4.10;;;;;;;11.93;76.43;99313.63;4995594;28;20046;-63
2021/05/20 04:37:51;;;;;;;6.45;3.75;;;;;;;11.94;76.56;99320.44;4995518;28;20042;-62
2021/05/20 04:40:20;;;;;;;7.88;4.28;;;;;;;11.95;76.25;99322.13;4995718;28;20197;-63
2021/05/20 04:42:48;;;;;;;6.95;4.47;;;;;;;11.98;76.54;99319.53;4995395;28;20046;-62
2021/05/20 04:45:18;;;;;;;6.32;3.92;;;;;;;12.01;76.26;99324.63;4995426;28;20046;-62
2021/05/20 04:47:46;;;;;;;;;;;;;;;12.04;76.27;99326.31;4996085;28;20050;-62
2021/05/20 04:50:16;;;;;;;7.28;3.90;;;;;;;12.07;76.24;99327.09;4995018;28;19921;-62
2021/05/20 04:52:46;;;;;;;8.73;4.07;;;;;;;12.12;75.82;99328.78;4995815;28;20074;-62
2021/05/20 04:55:18;;;;;;;;;;;;;;;12.17;75.83;99337.19;4996083;28;20039;-62
2021/05/20 04:57:47;;;;;;;8.60;4.43;;;;;;;12.25;75.59;99345.63;4994485;28;19921;-63
2021/05/20 05:00:17;;;;;;;7.80;4.47;;;;;;;12.30;75.42;99343.88;4995411;28;20073;-63
2021/05/20 05:02:50;;;;;;;7.30;5.20;;;;;;;12.35;75.19;99342.09;4995058;28;20042;-61
2021/05/20 05:05:19;;;;;;;7.85;5.80;;;;;;;12.41;75.13;99347.13;4995049;28;20042;-63
2021/05/20 05:07:47;;;;;;;6.50;4.28;;;;;;;12.46;74.76;99350.47;4994975;28;20448;-62
2021/05/20 05:10:16;;;;;;;11.70;5.30;;;;;;;12.53;74.55;99352.06;4994898;28;20409;-62
2021/05/20 05:12:45;;;;;;;5.20;3.20;;;;;;;12.61;74.45;99350.25;4995133;28;20125;-62
2021/05/20 05:15:13;;;;;;;9.43;4.78;;;;;;;12.61;74.81;99345.16;4994875;28;20093;-62
2021/05/20 05:17:43;;;;;;;6.72;4.13;;;;;;;12.75;74.49;99353.47;4994757;28;20046;-62
2021/05/20 05:20:12;;;;;;;9.02;4.90;;;;;;;12.81;74.30;99358.50;4994726;28;20054;-62
2021/05/20 05:22:40;;;;;;;6.17;3.77;;;;;;;12.87;73.98;99355.84;4995507;28;20041;-63
2021/05/20 05:25:09;;;;;;;7.50;5.00;;;;;;;12.95;73.84;99364.28;4994695;28;20288;-62
2021/05/20 05:27:40;;;;;;;8.25;5.13;;;;;;;12.99;73.69;99362.50;4994715;28;20058;-62
2021/05/20 05:30:10;;;;;;;9.57;5.55;;;;;;;12.99;73.42;99365.06;4994538;28;20050;-62
2021/05/20 05:32:38;;;;;;;;;;;;;;;13.04;72.93;99369.25;4995357;28;20061;-62
2021/05/20 05:35:08;;;;;;;8.23;5.68;;;;;;;13.07;72.27;99371.81;4994567;28;19921;-62
2021/05/20 05:37:37;;;;;;;7.82;5.43;;;;;;;13.06;72.44;99367.53;4993711;28;20096;-62
2021/05/20 05:40:07;;;;;;;8.00;5.53;;;;;;;13.14;72.27;99375.97;4994521;28;20085;-63
2021/05/20 05:42:35;;;;;;;;;;;;;;;13.20;71.83;99375.00;4995109;28;20046;-61
2021/05/20 05:45:05;;;;;;;7.50;4.68;;;;;;;13.24;71.42;99367.25;4994298;28;19922;-62
2021/05/20 05:47:34;;;;;;;7.78;5.00;;;;;;;13.26;71.27;99373.19;4994408;28;20073;-62
2021/05/20 05:50:07;;;;;;;7.50;5.10;;;;;;;13.27;71.09;99369.75;4994186;28;20066;-62
2021/05/20 05:52:37;;;;;;;8.50;5.63;;;;;;;13.38;70.98;99378.13;4994532;28;20046;-62
2021/05/20 05:55:07;;;;;;;8.48;6.38;;;;;;;13.40;70.64;99376.38;4994183;28;20046;-63
2021/05/20 05:57:36;;;;;;;7.82;5.25;;;;;;;13.41;70.44;99372.09;4994327;28;20137;-62
2021/05/20 06:00:06;;;;;;;8.60;5.33;;;;;;;13.47;69.83;99381.38;4994256;28;20141;-62
2021/05/20 06:02:46;;;;;;;8.40;5.47;;;;;;;13.59;70.01;99387.16;4994471;28;20084;-62
2021/05/20 06:05:15;;;;;;;8.25;5.78;;;;;;;13.77;69.17;99391.94;4994017;28;20061;-62
2021/05/20 06:07:45;;;;;;;6.40;4.93;;;;;;;13.88;69.22;99397.72;4994536;28;20500;-62
2021/05/20 06:10:14;;;;;;;8.82;4.97;;;;;;;13.94;69.00;99400.16;4993899;28;20050;-62
2021/05/20 06:12:42;;;;;;;7.13;5.13;;;;;;;14.02;68.82;99397.47;4994063;28;20082;-62
2021/05/20 06:15:11;;;;;;;8.85;5.40;;;;;;;14.17;68.43;99397.16;4994057;28;20381;-64
2021/05/20 06:17:40;;;;;;;6.93;4.80;;;;;;;14.17;67.88;99397.16;4994345;28;20492;-62
2021/05/20 06:20:09;;;;;;;7.70;4.88;;;;;;;14.18;67.62;99393.72;4993978;28;20104;-62
2021/05/20 06:22:38;;;;;;;9.07;5.55;;;;;;;14.37;67.39;99395.06;4993928;28;20492;-62
2021/05/20 06:25:08;;;;;;;8.75;5.45;;;;;;;14.62;67.29;99406.53;4993975;28;20133;-62
2021/05/20 06:27:37;;;;;;;9.43;5.47;;;;;;;14.69;66.18;99400.38;4993867;28;20145;-63
2021/05/20 06:30:06;;;;;;;6.75;4.70;;;;;;;14.75;65.77;99407.09;4993884;28;20051;-62
2021/05/20 06:32:36;;;;;;;7.22;4.93;;;;;;;14.83;65.77;99409.50;4993888;28;20054;-62
2021/05/20 06:35:05;;;;;;;7.07;5.30;;;;;;;14.74;65.38;99408.81;4993835;28;20038;-62
2021/05/20 06:37:34;;;;;;;8.98;5.28;;;;;;;14.68;65.47;99408.94;4993917;28;20046;-61
2021/05/20 06:40:03;;;;;;;8.95;6.20;;;;;;;14.65;65.03;99406.47;4993767;28;20050;-62
2021/05/20 06:42:34;;;;;;;8.95;5.63;;;;;;;14.63;65.00;99415.94;4994130;28;20055;-63
2021/05/20 06:45:03;;;;;;;8.45;5.60;;;;;;;14.67;64.98;99427.81;4993713;28;20133;-62
2021/05/20 06:47:32;;;;;;;7.03;5.47;;;;;;;14.71;64.82;99429.44;4994020;28;20046;-62
2021/05/20 06:50:00;;;;;;;8.23;5.50;;;;;;;14.75;64.97;99428.50;4993541;28;20144;-62
2021/05/20 06:52:28;;;;;;;9.18;5.40;;;;;;;14.86;65.10;99428.25;4994027;28;20058;-62
2021/05/20 06:54:57;;;;;;;7.82;5.28;;;;;;;14.91;64.24;99428.16;4993731;28;20046;-63
2021/05/20 06:57:26;;;;;;;7.38;5.38;;;;;;;14.99;65.01;99429.69;4993671;28;20405;-62
2021/05/20 06:59:57;;;;;;;8.02;5.47;;;;;;;15.08;64.74;99431.19;4993623;28;20436;-63
2021/05/20 07:02:25;;;;;;;;;;;;;;;15.12;64.62;99437.94;4994063;28;20070;-63
2021/05/20 07:04:54;;;;;;;8.32;5.38;;;;;;;15.14;64.08;99436.22;4993811;28;19926;-63
2021/05/20 07:07:25;;;;;;;8.05;5.45;;;;;;;15.17;63.93;99446.41;4993891;28;20062;-62
2021/05/20 07:09:55;;;;;;;7.38;5.78;;;;;;;15.21;63.23;99427.47;4993647;28;20050;-62
2021/05/20 07:12:23;;;;;;;8.52;5.82;;;;;;;15.24;63.30;99438.50;4993579;28;20121;-63
2021/05/20 07:14:52;;;;;;;8.18;5.15;;;;;;;15.31;63.70;99439.22;4993437;28;20133;-63
2021/05/20 07:17:21;;;;;;;7.72;6.05;;;;;;;15.41;63.68;99445.81;4993777;28;20046;-62
2021/05/20 07:19:51;;;;;;;8.70;5.72;;;;;;;15.42;63.22;99442.38;4993405;28;20055;-63
2021/05/20 07:22:19;;;;;;;9.40;6.07;;;;;;;15.56;62.60;99444.66;4996699;28;20046;-62
2021/05/20 07:24:48;;;;;;;8.38;5.88;;;;;;;15.66;61.73;99436.66;4996863;28;20519;-61
2021/05/20 07:27:16;;;;;;;9.07;5.80;;;;;;;15.73;61.58;99435.63;4996855;28;20049;-62
2021/05/20 07:29:45;;;;;;;8.15;5.80;;;;;;;15.92;61.47;99439.41;4996784;28;20547;-62
2021/05/20 07:32:18;;;;;;;8.15;5.43;;;;;;;16.01;61.36;99444.31;4996709;28;20053;-61
2021/05/20 07:34:48;;;;;;;7.38;4.40;;;;;;;16.06;60.53;99447.63;4996759;28;20050;-62
2021/05/20 07:37:16;;;;;;;5.72;4.20;;;;;;;16.13;60.68;99447.44;4996646;28;20125;-62
2021/05/20 07:39:45;;;;;;;9.80;4.60;;;;;;;16.24;60.62;99450.59;4996408;28;20054;-62
2021/05/20 07:42:13;;;;;;;6.75;4.68;;;;;;;16.44;60.57;99449.13;4996638;28;20048;-62
2021/05/20 07:44:42;;;;;;;9.27;4.70;;;;;;;16.59;59.59;99455.63;4996558;28;20138;-62
2021/05/20 07:47:11;;;;;;;7.88;4.90;;;;;;;16.83;59.08;99454.06;4996437;28;20515;-62
2021/05/20 07:49:40;;;;;;;8.27;5.50;;;;;;;17.11;58.47;99463.50;4996525;28;20046;-62
2021/05/20 07:52:10;;;;;;;7.35;5.05;;;;;;;17.03;57.58;99462.91;4996407;28;20062;-61
2021/05/20 07:54:39;;;;;;;8.65;4.70;;;;;;;16.67;57.81;99469.16;4996731;28;20054;-62
2021/05/20 07:57:07;;;;;;;7.18;4.38;;;;;;;16.47;58.36;99473.97;4996567;28;20038;-62
2021/05/20 07:59:36;;;;;;;7.97;4.50;;;;;;;16.41;57.97;99463.84;4995107;28;20050;-62
2021/05/20 08:02:10;;;;;;;5.95;4.25;;;;;;;16.28;58.67;99467.63;4996348;28;20051;-61
2021/05/20 08:04:40;;;;;;;11.73;4.38;;;;;;;16.18;58.50;99461.03;4996152;28;20051;-63
2021/05/20 08:07:32;;;;;;;5.88;4.13;;;;;;;16.14;58.70;99480.03;4996448;28;20057;-61
2021/05/20 08:12:44;;;;;;;6.10;4.13;;;;;;;16.12;59.18;99482.66;4984059;28;20428;-62
2021/05/20 08:15:13;;;;;;;6.28;4.82;;;;;;;16.14;58.91;99474.88;4995837;28;20058;-63
2021/05/20 08:17:42;;;;;;;6.07;4.68;;;;;;;16.25;59.31;99483.16;4995820;28;20148;-62
2021/05/20 08:20:11;;;;;;;8.25;5.32;;;;;;;16.33;58.84;99481.25;4996212;28;20389;-61
2021/05/20 08:22:40;;;;;;;6.43;4.20;;;;;;;16.45;58.78;99484.34;4996066;28;20065;-60
2021/05/20 08:25:10;;;;;;;7.75;5.15;;;;;;;16.61;58.73;99477.03;4995830;28;20050;-62
2021/05/20 08:27:39;;;;;;;8.55;5.10;;;;;;;16.64;58.37;99467.50;4995633;28;20054;-64
2021/05/20 08:30:09;;;;;;;6.75;5.38;;;;;;;16.83;57.73;99485.84;4978288;28;20054;-61
2021/05/20 08:32:37;;;;;;;10.77;5.15;;;;;;;17.20;56.64;99488.19;4995375;28;20443;-61
2021/05/20 08:35:07;;;;;;;7.30;5.40;;;;;;;17.42;55.74;99494.34;4995430;28;20054;-62
2021/05/20 08:37:38;;;;;;;8.73;5.53;;;;;;;17.55;55.51;99500.00;4995928;28;20097;-63
2021/05/20 08:40:11;;;;;;;7.45;5.72;;;;;;;17.65;54.40;99488.50;4995403;28;20137;-62
2021/05/20 08:42:40;;;;;;;7.55;5.45;;;;;;;17.64;54.40;99494.53;4995526;28;20042;-63
2021/05/20 08:45:11;;;;;;;6.93;5.53;;;;;;;17.86;54.34;99496.38;4995528;28;20084;-62
2021/05/20 08:47:40;;;;;;;10.82;6.28;;;;;;;17.98;53.64;99501.13;4995662;28;20058;-62
2021/05/20 08:50:10;;;;;;;8.80;5.30;;;;;;;17.93;53.68;99499.59;4995065;28;20050;-62
2021/05/20 08:52:40;;;;;;;7.18;5.18;;;;;;;17.86;52.73;99500.69;4995081;28;20280;-61
2021/05/20 08:55:12;;;;;;;11.02;6.18;;;;;;;17.75;52.34;99505.38;4995220;28;20508;-62
2021/05/20 08:57:41;;;;;;;12.02;6.25;;;;;;;17.88;52.88;99504.06;4995088;28;20054;-62
2021/05/20 09:00:12;;;;;;;8.03;5.63;;;;;;;17.97;51.53;99508.94;4995106;28;20046;-62
2021/05/20 09:02:41;;;;;;;8.55;5.90;;;;;;;18.01;51.75;99505.38;4995109;28;20059;-61
2021/05/20 09:05:11;;;;;;;11.57;6.00;;;;;;;17.93;51.00;99507.34;4994906;28;20054;-61
2021/05/20 09:07:42;;;;;;;7.88;6.07;;;;;;;18.01;50.93;99515.69;4995646;28;20046;-62
2021/05/20 09:10:21;;;;;;;8.82;5.85;;;;;;;18.19;50.21;99520.22;4994808;28;20089;-62
2021/05/20 09:12:51;;;;;;;7.32;5.60;;;;;;;18.27;50.18;99507.91;4995252;28;20408;-62
2021/05/20 09:15:21;;;;;;;;;;;;;;;18.39;49.66;99512.63;4995333;28;20057;-62
2021/05/20 09:17:50;;;;;;;8.55;5.25;;;;;;;18.36;48.94;99505.00;4994828;28;20012;-61
2021/05/20 09:20:19;;;;;;;6.65;4.97;;;;;;;18.38;49.43;99510.13;4995631;28;20377;-61
2021/05/20 09:23:02;;;;;;;9.00;6.03;;;;;;;18.53;49.74;99510.44;4994668;28;20045;-61
2021/05/20 09:25:33;;;;;;;6.97;5.10;;;;;;;18.50;49.04;99515.72;4994922;28;20097;-61
2021/05/20 09:28:03;;;;;;;9.55;5.10;;;;;;;18.49;48.96;99518.34;4994684;28;20077;-62
2021/05/20 09:30:33;;;;;;;6.53;4.82;;;;;;;18.50;49.29;99518.28;4994600;28;20049;-61
2021/05/20 09:33:06;;;;;;;7.20;5.18;;;;;;;18.59;49.18;99510.22;4994630;28;20081;-61
2021/05/20 09:35:37;;;;;;;7.35;5.25;;;;;;;18.59;48.89;99518.00;4994508;28;20069;-61
2021/05/20 09:38:11;;;;;;;7.57;5.30;;;;;;;18.62;48.87;99525.63;4994616;28;20057;-61
2021/05/20 09:40:42;;;;;;;7.40;5.32;;;;;;;18.59;48.94;99520.56;4994467;28;20050;-62
2021/05/20 09:43:15;;;;;;;6.88;5.30;;;;;;;18.48;48.76;99517.50;4993787;28;20049;-61
2021/05/20 09:45:46;;;;;;;6.72;5.28;;;;;;;18.29;48.66;99521.59;4994223;28;20046;-61
2021/05/20 09:48:14;;;;;;;;;;;;;;;18.29;49.13;99528.50;4994717;28;20046;-62
2021/05/20 09:50:45;;;;;;;7.38;4.80;;;;;;;18.11;49.20;99535.16;4994129;28;19941;-62
2021/05/20 09:53:15;;;;;;;6.97;4.90;;;;;;;17.82;49.67;99524.94;4993030;28;20046;-62
2021/05/20 09:55:54;;;;;;;7.90;5.00;;;;;;;17.67;50.12;99530.59;4994162;28;20130;-61
2021/05/20 09:58:26;;;;;;;6.88;5.20;;;;;;;17.38;50.93;99534.03;4994236;28;20108;-61
2021/05/20 10:00:56;;;;;;;6.93;5.13;;;;;;;17.10;52.13;99544.34;4994213;28;20054;-61
2021/05/20 10:03:26;;;;;;;8.18;5.45;;;;;;;16.83;54.90;99523.66;4994182;28;20097;-62
2021/05/20 10:05:57;;;;;;;6.28;5.18;;;;;;;16.77;55.70;99537.59;4994041;28;20047;-62
2021/05/20 10:08:29;;;;;;;7.55;5.32;;;;;;;17.02;56.39;99517.94;4994156;28;20058;-63
2021/05/20 10:11:01;;;;;;;8.13;5.28;;;;;;;17.43;56.38;99514.09;4994094;28;20466;-63
2021/05/20 10:13:30;;;;;;;9.55;5.90;;;;;;;17.91;57.46;99514.31;4994074;28;20074;-63
2021/05/20 10:15:59;;;;;;;13.50;5.40;;;;;;;18.42;57.45;99515.13;4994078;28;20057;-62
2021/05/20 10:18:29;;;;;;;6.22;4.55;;;;;;;18.84;57.42;99501.56;4994059;28;20046;-62
2021/05/20 10:21:00;;;;;;;5.40;3.83;;;;;;;19.05;54.63;99511.13;4994059;28;20081;-61
2021/05/20 10:23:29;;;;;;;6.00;4.53;;;;;;;18.78;53.00;99515.56;4994084;28;20419;-61
2021/05/20 10:25:59;;;;;;;6.55;4.47;;;;;;;18.37;52.35;99509.28;4993890;28;20070;-61
2021/05/20 10:28:31;;;;;;;7.90;5.03;;;;;;;18.40;51.78;99514.34;4993948;28;20129;-62
2021/05/20 10:31:04;;;;;;;5.95;4.43;;;;;;;18.52;51.46;99511.31;4994183;28;20109;-62
2021/05/20 10:33:36;;;;;;;5.07;3.78;;;;;;;18.99;51.28;99508.75;4994484;28;20050;-62
2021/05/20 10:36:21;;;;;;;4.82;3.55;;;;;;;19.00;50.25;99505.28;4993854;28;20054;-62
2021/05/20 10:38:50;;;;;;;4.10;2.85;;;;;;;19.55;48.80;99510.03;4992962;28;20162;-62
2021/05/20 10:41:23;;;;;;;6.53;4.88;;;;;;;19.86;46.91;99510.47;4994049;28;20070;-62
2021/05/20 10:44:08;;;;;;;5.05;3.50;;;;;;;19.88;46.73;99513.00;4993709;28;20122;-63
2021/05/20 10:47:02;;;;;;;6.35;3.20;;;;;;;19.46;47.04;99506.97;4993886;28;20113;-61
2021/05/20 10:49:59;;;;;;;6.30;3.28;;;;;;;19.02;47.46;99503.47;4993721;28;20116;-63
2021/05/20 10:52:45;;;;;;;5.25;2.90;;;;;;;18.72;47.43;99511.47;4993452;28;20563;-62
2021/05/20 10:55:17;;;;;;;5.60;2.70;;;;;;;18.42;46.97;99509.09;4996335;28;20058;-61
2021/05/20 10:57:58;;;;;;;4.70;3.03;;;;;;;18.37;47.25;99518.75;4997412;28;20051;-62
2021/05/20 11:00:38;;;;;;;6.43;3.10;;;;;;;18.48;48.47;99512.34;4997342;28;20097;-62
2021/05/20 11:03:11;;;;;;;5.22;3.38;;;;;;;18.68;48.75;99509.03;4997345;28;20054;-61
2021/05/20 11:05:52;;;;;;;7.03;3.30;;;;;;;18.61;48.75;99511.03;4997285;28;20054;-63
2021/05/20 11:08:47;;;;;;;4.03;2.80;;;;;;;18.56;47.96;99505.16;4997850;28;20073;-61
2021/05/20 11:11:24;;;;;;;6.72;2.72;;;;;;;18.54;47.91;99504.38;4997599;28;20519;-62
2021/05/20 11:13:58;;;;;;;4.38;2.70;;;;;;;18.76;47.53;99501.00;4997232;28;20046;-62
2021/05/20 11:16:30;;;;;;;6.38;2.40;;;;;;;18.99;46.67;99498.41;4997328;28;20047;-61
2021/05/20 11:19:28;;;;;;;4.97;2.50;;;;;;;19.20;46.04;99502.75;4996995;28;20058;-61
2021/05/20 11:22:12;;;;;;;4.03;2.03;;;;;;;19.42;45.73;99497.63;4992794;28;20050;-63
2021/05/20 11:25:11;;;;;;;6.05;2.10;;;;;;;19.53;45.29;99501.47;4996918;28;20055;-63
2021/05/20 11:27:41;;;;;;;3.55;2.15;;;;;;;19.53;45.02;99491.09;4997033;28;20042;-63
2021/05/20 11:30:14;;;;;;;3.60;1.60;;;;;;;19.38;43.97;99502.09;4979772;28;20047;-61
2021/05/20 11:32:52;;;;;;;2.60;1.80;;;;;;;19.27;42.42;99488.69;4996731;28;20078;-64
2021/05/20 11:35:32;;;;;;;2.90;1.48;;;;;;;19.30;42.05;99483.38;4996772;28;20054;-62
2021/05/20 11:38:04;;;;;;;4.43;1.42;;;;;;;19.15;41.54;99483.97;4996870;28;20054;-61
2021/05/20 11:40:37;;;;;;;2.90;1.40;;;;;;;18.95;41.05;99491.66;4996902;28;20523;-61
2021/05/20 11:43:06;;;;;;;2.60;1.38;;;;;;;18.90;42.12;99488.41;4996862;28;20064;-62
2021/05/20 11:45:39;;;;;;;2.65;1.40;;;;;;;18.85;41.22;99490.31;4996537;28;20496;-62
2021/05/20 11:48:08;;;;;;;5.93;2.22;;;;;;;18.99;41.49;99486.31;4997016;28;20049;-62
2021/05/20 11:50:37;;;;;;;2.58;1.23;;;;;;;19.12;40.77;99484.94;4996362;28;20488;-64
2021/05/20 11:53:12;;;;;;;2.10;1.20;;;;;;;19.14;40.32;99477.13;4996710;28;20054;-62